sensor_id;sensor_type;location;lat;lon;timestamp;P1;durP1;ratioP1;P2;durP2;ratioP2
20458;SDS011;10388;52.314;7.938;2023-07-31T00:03:59;4.87;;;3.83;;
20458;SDS011;10388;52.314;7.938;2023-07-31T00:06:30;5.53;;;3.90;;
20458;SDS011;10388;52.314;7.938;2023-07-31T00:09:01;4.40;;;4.00;;
20458;SDS011;10388;52.314;7.938;2023-07-31T00:11:31;4.37;;;3.97;;
20458;SDS011;10388;52.314;7.938;2023-07-31T00:14:02;4.83;;;4.43;;
20458;SDS011;10388;52.314;7.938;2023-07-31T03:30:20;0.97;;;0.50;;
20458;SDS011;10388;52.314;7.938;2023-07-31T03:32:51;0.60;;;0.60;;
20458;SDS011;10388;52.314;7.938;2023-07-31T03:35:21;1.00;;;0.80;;
20458;SDS011;10388;52.314;7.938;2023-07-31T03:37:52;1.63;;;0.70;;
20458;SDS011;10388;52.314;7.938;2023-07-31T03:40:22;1.93;;;0.80;;
20458;SDS011;10388;52.314;7.938;2023-07-31T03:42:53;2.53;;;1.00;;
20458;SDS011;10388;52.314;7.938;2023-07-31T03:45:23;2.20;;;1.33;;
20458;SDS011;10388;52.314;7.938;2023-07-31T03:47:54;3.40;;;1.77;;
20458;SDS011;10388;52.314;7.938;2023-07-31T03:50:25;5.23;;;2.40;;
20458;SDS011;10388;52.314;7.938;2023-07-31T03:52:55;4.57;;;2.93;;
20458;SDS011;10388;52.314;7.938;2023-07-31T03:55:26;5.33;;;3.13;;
20458;SDS011;10388;52.314;7.938;2023-07-31T03:57:56;6.67;;;4.23;;
20458;SDS011;10388;52.314;7.938;2023-07-31T04:00:27;7.40;;;4.63;;
20458;SDS011;10388;52.314;7.938;2023-07-31T04:02:57;8.30;;;5.73;;
20458;SDS011;10388;52.314;7.938;2023-07-31T04:05:29;11.23;;;7.33;;
20458;SDS011;10388;52.314;7.938;2023-07-31T04:08:01;10.50;;;7.30;;
20458;SDS011;10388;52.314;7.938;2023-07-31T04:10:31;16.27;;;8.23;;
20458;SDS011;10388;52.314;7.938;2023-07-31T04:13:03;16.73;;;8.77;;
20458;SDS011;10388;52.314;7.938;2023-07-31T04:15:33;14.40;;;8.57;;
20458;SDS011;10388;52.314;7.938;2023-07-31T04:18:04;16.03;;;8.70;;
20458;SDS011;10388;52.314;7.938;2023-07-31T04:20:35;16.73;;;9.10;;
20458;SDS011;10388;52.314;7.938;2023-07-31T04:23:06;16.17;;;9.20;;
20458;SDS011;10388;52.314;7.938;2023-07-31T04:25:36;15.27;;;9.13;;
20458;SDS011;10388;52.314;7.938;2023-07-31T04:28:07;16.73;;;9.30;;
20458;SDS011;10388;52.314;7.938;2023-07-31T04:30:38;14.50;;;8.90;;
20458;SDS011;10388;52.314;7.938;2023-07-31T04:33:09;13.97;;;8.17;;
20458;SDS011;10388;52.314;7.938;2023-07-31T04:35:39;14.27;;;8.90;;
20458;SDS011;10388;52.314;7.938;2023-07-31T04:38:10;14.13;;;8.17;;
20458;SDS011;10388;52.314;7.938;2023-07-31T04:40:40;13.87;;;8.27;;
20458;SDS011;10388;52.314;7.938;2023-07-31T04:43:11;12.27;;;7.97;;
20458;SDS011;10388;52.314;7.938;2023-07-31T04:45:45;14.07;;;7.57;;
20458;SDS011;10388;52.314;7.938;2023-07-31T04:48:17;13.13;;;7.80;;
20458;SDS011;10388;52.314;7.938;2023-07-31T04:50:47;10.77;;;6.73;;
20458;SDS011;10388;52.314;7.938;2023-07-31T04:53:18;13.70;;;6.83;;
20458;SDS011;10388;52.314;7.938;2023-07-31T04:55:49;13.23;;;7.50;;
20458;SDS011;10388;52.314;7.938;2023-07-31T04:58:19;10.07;;;6.30;;
20458;SDS011;10388;52.314;7.938;2023-07-31T05:00:50;11.10;;;6.77;;
20458;SDS011;10388;52.314;7.938;2023-07-31T05:03:20;11.63;;;6.33;;
20458;SDS011;10388;52.314;7.938;2023-07-31T05:05:51;15.20;;;8.37;;
20458;SDS011;10388;52.314;7.938;2023-07-31T05:08:21;14.83;;;7.87;;
20458;SDS011;10388;52.314;7.938;2023-07-31T05:10:52;17.53;;;8.63;;
20458;SDS011;10388;52.314;7.938;2023-07-31T05:13:22;16.33;;;8.23;;
20458;SDS011;10388;52.314;7.938;2023-07-31T05:15:53;13.90;;;7.50;;
20458;SDS011;10388;52.314;7.938;2023-07-31T05:18:24;16.30;;;8.10;;
20458;SDS011;10388;52.314;7.938;2023-07-31T05:20:54;14.43;;;8.70;;
20458;SDS011;10388;52.314;7.938;2023-07-31T05:23:25;14.03;;;7.93;;
20458;SDS011;10388;52.314;7.938;2023-07-31T05:25:55;12.20;;;8.43;;
20458;SDS011;10388;52.314;7.938;2023-07-31T05:28:33;16.33;;;9.20;;
20458;SDS011;10388;52.314;7.938;2023-07-31T05:31:04;16.77;;;8.13;;
20458;SDS011;10388;52.314;7.938;2023-07-31T05:33:35;19.87;;;9.40;;
20458;SDS011;10388;52.314;7.938;2023-07-31T05:36:06;15.90;;;8.43;;
20458;SDS011;10388;52.314;7.938;2023-07-31T05:38:36;20.07;;;9.17;;
20458;SDS011;10388;52.314;7.938;2023-07-31T05:41:07;17.33;;;9.50;;
20458;SDS011;10388;52.314;7.938;2023-07-31T05:43:37;19.27;;;8.90;;
20458;SDS011;10388;52.314;7.938;2023-07-31T05:46:09;18.70;;;8.00;;
20458;SDS011;10388;52.314;7.938;2023-07-31T05:48:39;15.10;;;8.37;;
20458;SDS011;10388;52.314;7.938;2023-07-31T05:51:10;15.53;;;8.93;;
20458;SDS011;10388;52.314;7.938;2023-07-31T05:53:41;20.17;;;8.57;;
20458;SDS011;10388;52.314;7.938;2023-07-31T05:56:11;18.13;;;8.63;;
20458;SDS011;10388;52.314;7.938;2023-07-31T05:58:42;16.83;;;7.67;;
20458;SDS011;10388;52.314;7.938;2023-07-31T06:01:12;15.23;;;7.77;;
20458;SDS011;10388;52.314;7.938;2023-07-31T06:03:43;15.03;;;7.60;;
20458;SDS011;10388;52.314;7.938;2023-07-31T06:06:14;23.30;;;8.73;;
20458;SDS011;10388;52.314;7.938;2023-07-31T06:08:44;14.67;;;7.00;;
20458;SDS011;10388;52.314;7.938;2023-07-31T06:11:15;13.47;;;7.07;;
20458;SDS011;10388;52.314;7.938;2023-07-31T06:13:45;15.83;;;7.90;;
20458;SDS011;10388;52.314;7.938;2023-07-31T06:16:18;12.23;;;7.03;;
20458;SDS011;10388;52.314;7.938;2023-07-31T06:18:48;12.13;;;6.83;;
20458;SDS011;10388;52.314;7.938;2023-07-31T06:21:19;15.37;;;6.77;;
20458;SDS011;10388;52.314;7.938;2023-07-31T06:23:49;12.60;;;6.63;;
20458;SDS011;10388;52.314;7.938;2023-07-31T06:26:20;15.50;;;6.57;;
20458;SDS011;10388;52.314;7.938;2023-07-31T06:28:50;12.13;;;6.43;;
20458;SDS011;10388;52.314;7.938;2023-07-31T06:31:21;12.23;;;6.80;;
20458;SDS011;10388;52.314;7.938;2023-07-31T06:33:53;13.70;;;6.97;;
20458;SDS011;10388;52.314;7.938;2023-07-31T06:36:24;14.20;;;6.67;;
20458;SDS011;10388;52.314;7.938;2023-07-31T06:38:54;11.10;;;6.20;;
20458;SDS011;10388;52.314;7.938;2023-07-31T06:41:25;11.17;;;6.47;;
20458;SDS011;10388;52.314;7.938;2023-07-31T06:43:55;14.93;;;6.83;;
20458;SDS011;10388;52.314;7.938;2023-07-31T06:46:26;10.17;;;6.10;;
20458;SDS011;10388;52.314;7.938;2023-07-31T06:48:56;10.40;;;5.87;;
20458;SDS011;10388;52.314;7.938;2023-07-31T06:51:27;10.77;;;6.10;;
20458;SDS011;10388;52.314;7.938;2023-07-31T06:53:58;11.67;;;6.07;;
20458;SDS011;10388;52.314;7.938;2023-07-31T06:56:28;12.07;;;5.87;;
20458;SDS011;10388;52.314;7.938;2023-07-31T06:58:59;11.77;;;6.30;;
20458;SDS011;10388;52.314;7.938;2023-07-31T07:01:29;11.93;;;5.23;;
20458;SDS011;10388;52.314;7.938;2023-07-31T07:04:00;10.60;;;5.97;;
20458;SDS011;10388;52.314;7.938;2023-07-31T07:06:30;9.10;;;5.60;;
20458;SDS011;10388;52.314;7.938;2023-07-31T07:09:01;12.57;;;6.00;;
20458;SDS011;10388;52.314;7.938;2023-07-31T07:11:33;10.07;;;5.93;;
20458;SDS011;10388;52.314;7.938;2023-07-31T07:14:04;10.80;;;5.47;;
20458;SDS011;10388;52.314;7.938;2023-07-31T07:16:34;13.10;;;5.67;;
20458;SDS011;10388;52.314;7.938;2023-07-31T07:19:05;10.33;;;5.93;;
20458;SDS011;10388;52.314;7.938;2023-07-31T07:21:35;10.77;;;5.83;;
20458;SDS011;10388;52.314;7.938;2023-07-31T07:24:06;10.20;;;5.60;;
20458;SDS011;10388;52.314;7.938;2023-07-31T07:26:36;13.60;;;6.57;;
20458;SDS011;10388;52.314;7.938;2023-07-31T07:29:07;11.03;;;5.83;;
20458;SDS011;10388;52.314;7.938;2023-07-31T07:31:38;11.97;;;6.03;;
20458;SDS011;10388;52.314;7.938;2023-07-31T07:34:08;12.13;;;5.87;;
20458;SDS011;10388;52.314;7.938;2023-07-31T07:36:39;10.27;;;5.50;;
20458;SDS011;10388;52.314;7.938;2023-07-31T07:39:10;10.10;;;5.70;;
20458;SDS011;10388;52.314;7.938;2023-07-31T07:41:41;14.97;;;6.10;;
20458;SDS011;10388;52.314;7.938;2023-07-31T07:44:11;11.07;;;5.97;;
20458;SDS011;10388;52.314;7.938;2023-07-31T07:46:42;9.97;;;5.90;;
20458;SDS011;10388;52.314;7.938;2023-07-31T07:49:13;11.00;;;5.37;;
20458;SDS011;10388;52.314;7.938;2023-07-31T07:51:43;8.90;;;5.13;;
20458;SDS011;10388;52.314;7.938;2023-07-31T07:54:14;11.60;;;5.17;;
20458;SDS011;10388;52.314;7.938;2023-07-31T07:56:46;11.40;;;5.80;;
20458;SDS011;10388;52.314;7.938;2023-07-31T07:59:17;9.60;;;5.37;;
20458;SDS011;10388;52.314;7.938;2023-07-31T11:59:56;5.90;;;1.57;;
20458;SDS011;10388;52.314;7.938;2023-07-31T12:02:28;2.07;;;1.50;;
20458;SDS011;10388;52.314;7.938;2023-07-31T12:04:58;1.60;;;1.30;;
20458;SDS011;10388;52.314;7.938;2023-07-31T12:07:42;1.90;;;1.60;;
20458;SDS011;10388;52.314;7.938;2023-07-31T12:10:32;3.50;;;1.70;;
20458;SDS011;10388;52.314;7.938;2023-07-31T12:15:36;2.10;;;1.90;;
20458;SDS011;10388;52.314;7.938;2023-07-31T12:18:12;2.50;;;1.73;;
20458;SDS011;10388;52.314;7.938;2023-07-31T12:20:44;1.60;;;1.50;;
20458;SDS011;10388;52.314;7.938;2023-07-31T12:23:17;4.70;;;1.70;;
20458;SDS011;10388;52.314;7.938;2023-07-31T12:25:54;2.97;;;2.00;;
20458;SDS011;10388;52.314;7.938;2023-07-31T12:28:36;2.33;;;1.80;;
20458;SDS011;10388;52.314;7.938;2023-07-31T12:31:20;2.00;;;1.80;;
20458;SDS011;10388;52.314;7.938;2023-07-31T12:33:51;2.80;;;1.80;;
20458;SDS011;10388;52.314;7.938;2023-07-31T12:36:22;3.33;;;2.00;;
20458;SDS011;10388;52.314;7.938;2023-07-31T12:38:54;2.23;;;2.00;;
20458;SDS011;10388;52.314;7.938;2023-07-31T12:41:26;2.10;;;2.00;;
20458;SDS011;10388;52.314;7.938;2023-07-31T12:43:57;2.50;;;2.30;;
20458;SDS011;10388;52.314;7.938;2023-07-31T12:46:28;3.20;;;1.93;;
20458;SDS011;10388;52.314;7.938;2023-07-31T12:48:58;1.90;;;1.80;;
20458;SDS011;10388;52.314;7.938;2023-07-31T12:51:29;3.30;;;2.27;;
20458;SDS011;10388;52.314;7.938;2023-07-31T12:53:59;3.87;;;2.63;;
20458;SDS011;10388;52.314;7.938;2023-07-31T12:56:30;2.57;;;2.37;;
20458;SDS011;10388;52.314;7.938;2023-07-31T12:59:01;2.63;;;2.40;;
20458;SDS011;10388;52.314;7.938;2023-07-31T13:01:31;4.93;;;3.17;;
20458;SDS011;10388;52.314;7.938;2023-07-31T13:04:02;4.30;;;3.13;;
20458;SDS011;10388;52.314;7.938;2023-07-31T13:06:32;4.20;;;3.23;;
20458;SDS011;10388;52.314;7.938;2023-07-31T13:09:03;4.87;;;2.90;;
20458;SDS011;10388;52.314;7.938;2023-07-31T13:11:34;4.43;;;3.30;;
20458;SDS011;10388;52.314;7.938;2023-07-31T13:14:04;4.80;;;4.20;;
20458;SDS011;10388;52.314;7.938;2023-07-31T13:16:35;5.10;;;3.60;;
20458;SDS011;10388;52.314;7.938;2023-07-31T13:19:05;4.63;;;3.27;;
20458;SDS011;10388;52.314;7.938;2023-07-31T13:21:36;3.23;;;2.93;;
20458;SDS011;10388;52.314;7.938;2023-07-31T13:24:07;3.40;;;3.07;;
20458;SDS011;10388;52.314;7.938;2023-07-31T13:26:37;3.40;;;3.10;;
20458;SDS011;10388;52.314;7.938;2023-07-31T13:29:07;3.70;;;3.40;;
20458;SDS011;10388;52.314;7.938;2023-07-31T13:31:38;5.50;;;3.50;;
20458;SDS011;10388;52.314;7.938;2023-07-31T13:34:08;4.40;;;3.27;;
20458;SDS011;10388;52.314;7.938;2023-07-31T13:36:39;3.77;;;3.47;;
20458;SDS011;10388;52.314;7.938;2023-07-31T13:39:10;4.00;;;3.33;;
20458;SDS011;10388;52.314;7.938;2023-07-31T13:41:40;7.23;;;3.47;;
20458;SDS011;10388;52.314;7.938;2023-07-31T13:44:11;4.60;;;3.00;;
20458;SDS011;10388;52.314;7.938;2023-07-31T13:46:41;3.43;;;3.03;;
20458;SDS011;10388;52.314;7.938;2023-07-31T13:49:12;3.60;;;2.90;;
20458;SDS011;10388;52.314;7.938;2023-07-31T13:51:43;3.13;;;2.80;;
20458;SDS011;10388;52.314;7.938;2023-07-31T13:54:13;6.93;;;2.97;;
20458;SDS011;10388;52.314;7.938;2023-07-31T13:56:45;3.03;;;2.50;;
20458;SDS011;10388;52.314;7.938;2023-07-31T13:59:16;3.43;;;2.50;;
20458;SDS011;10388;52.314;7.938;2023-07-31T14:01:46;2.63;;;2.37;;
20458;SDS011;10388;52.314;7.938;2023-07-31T14:04:17;3.30;;;3.00;;
20458;SDS011;10388;52.314;7.938;2023-07-31T14:06:48;3.97;;;2.60;;
20458;SDS011;10388;52.314;7.938;2023-07-31T14:09:20;3.83;;;2.77;;
20458;SDS011;10388;52.314;7.938;2023-07-31T14:11:50;3.27;;;2.60;;
20458;SDS011;10388;52.314;7.938;2023-07-31T14:14:21;2.80;;;2.60;;
20458;SDS011;10388;52.314;7.938;2023-07-31T14:16:51;2.90;;;2.67;;
20458;SDS011;10388;52.314;7.938;2023-07-31T14:19:22;6.10;;;3.07;;
20458;SDS011;10388;52.314;7.938;2023-07-31T14:21:53;3.77;;;3.10;;
20458;SDS011;10388;52.314;7.938;2023-07-31T14:24:24;3.33;;;2.90;;
20458;SDS011;10388;52.314;7.938;2023-07-31T14:26:55;2.93;;;2.70;;
20458;SDS011;10388;52.314;7.938;2023-07-31T14:29:25;3.60;;;2.87;;
20458;SDS011;10388;52.314;7.938;2023-07-31T14:31:56;3.07;;;2.77;;
20458;SDS011;10388;52.314;7.938;2023-07-31T14:34:26;3.23;;;2.67;;
20458;SDS011;10388;52.314;7.938;2023-07-31T14:36:57;3.17;;;2.87;;
20458;SDS011;10388;52.314;7.938;2023-07-31T14:39:27;3.80;;;2.83;;
20458;SDS011;10388;52.314;7.938;2023-07-31T14:41:58;4.20;;;2.63;;
20458;SDS011;10388;52.314;7.938;2023-07-31T14:44:28;4.43;;;2.87;;
20458;SDS011;10388;52.314;7.938;2023-07-31T14:46:59;3.60;;;2.80;;
20458;SDS011;10388;52.314;7.938;2023-07-31T14:49:29;3.03;;;2.30;;
20458;SDS011;10388;52.314;7.938;2023-07-31T14:52:00;3.07;;;2.67;;
20458;SDS011;10388;52.314;7.938;2023-07-31T14:54:31;3.00;;;2.70;;
20458;SDS011;10388;52.314;7.938;2023-07-31T14:57:01;3.20;;;2.23;;
20458;SDS011;10388;52.314;7.938;2023-07-31T14:59:32;4.53;;;2.70;;
20458;SDS011;10388;52.314;7.938;2023-07-31T15:02:02;2.93;;;2.50;;
20458;SDS011;10388;52.314;7.938;2023-07-31T15:04:33;3.40;;;2.43;;
20458;SDS011;10388;52.314;7.938;2023-07-31T15:07:03;4.10;;;2.20;;
20458;SDS011;10388;52.314;7.938;2023-07-31T15:09:34;3.47;;;2.40;;
20458;SDS011;10388;52.314;7.938;2023-07-31T15:12:05;2.37;;;2.17;;
20458;SDS011;10388;52.314;7.938;2023-07-31T15:14:36;2.03;;;1.83;;
20458;SDS011;10388;52.314;7.938;2023-07-31T15:17:06;2.30;;;1.93;;
20458;SDS011;10388;52.314;7.938;2023-07-31T15:19:37;2.87;;;2.13;;
20458;SDS011;10388;52.314;7.938;2023-07-31T15:22:07;4.10;;;1.87;;
20458;SDS011;10388;52.314;7.938;2023-07-31T15:24:38;5.30;;;2.10;;
20458;SDS011;10388;52.314;7.938;2023-07-31T15:27:08;2.43;;;2.00;;
20458;SDS011;10388;52.314;7.938;2023-07-31T15:29:39;2.97;;;2.07;;
20458;SDS011;10388;52.314;7.938;2023-07-31T15:32:10;2.77;;;2.00;;
20458;SDS011;10388;52.314;7.938;2023-07-31T15:34:40;2.33;;;1.83;;
20458;SDS011;10388;52.314;7.938;2023-07-31T15:37:11;3.10;;;1.90;;
20458;SDS011;10388;52.314;7.938;2023-07-31T15:39:41;3.83;;;2.07;;
20458;SDS011;10388;52.314;7.938;2023-07-31T15:42:12;2.10;;;1.90;;
20458;SDS011;10388;52.314;7.938;2023-07-31T15:44:43;3.63;;;2.30;;
20458;SDS011;10388;52.314;7.938;2023-07-31T15:47:13;3.60;;;1.83;;
20458;SDS011;10388;52.314;7.938;2023-07-31T15:49:44;3.37;;;2.00;;
20458;SDS011;10388;52.314;7.938;2023-07-31T15:52:14;2.80;;;2.17;;
20458;SDS011;10388;52.314;7.938;2023-07-31T15:54:45;2.77;;;1.70;;
20458;SDS011;10388;52.314;7.938;2023-07-31T15:57:15;2.80;;;2.10;;
20458;SDS011;10388;52.314;7.938;2023-07-31T15:59:46;2.73;;;2.00;;
20458;SDS011;10388;52.314;7.938;2023-07-31T16:02:16;2.43;;;2.10;;
20458;SDS011;10388;52.314;7.938;2023-07-31T16:04:47;3.53;;;2.70;;
20458;SDS011;10388;52.314;7.938;2023-07-31T16:07:17;3.13;;;2.80;;
20458;SDS011;10388;52.314;7.938;2023-07-31T16:09:48;3.63;;;2.77;;
20458;SDS011;10388;52.314;7.938;2023-07-31T16:12:18;3.87;;;3.47;;
20458;SDS011;10388;52.314;7.938;2023-07-31T16:14:49;6.13;;;3.03;;
20458;SDS011;10388;52.314;7.938;2023-07-31T16:17:19;3.73;;;2.83;;
20458;SDS011;10388;52.314;7.938;2023-07-31T16:19:50;3.17;;;2.87;;
20458;SDS011;10388;52.314;7.938;2023-07-31T16:22:20;4.33;;;3.10;;
20458;SDS011;10388;52.314;7.938;2023-07-31T16:24:51;4.47;;;3.30;;
20458;SDS011;10388;52.314;7.938;2023-07-31T16:27:22;4.17;;;3.77;;
20458;SDS011;10388;52.314;7.938;2023-07-31T16:29:54;4.17;;;3.70;;
20458;SDS011;10388;52.314;7.938;2023-07-31T16:32:26;4.40;;;4.00;;
20458;SDS011;10388;52.314;7.938;2023-07-31T16:34:57;5.57;;;4.37;;
20458;SDS011;10388;52.314;7.938;2023-07-31T16:37:28;6.53;;;5.00;;
20458;SDS011;10388;52.314;7.938;2023-07-31T16:39:58;6.20;;;5.60;;
20458;SDS011;10388;52.314;7.938;2023-07-31T16:42:29;6.67;;;5.97;;
20458;SDS011;10388;52.314;7.938;2023-07-31T16:45:00;6.97;;;6.23;;
20458;SDS011;10388;52.314;7.938;2023-07-31T16:47:31;7.87;;;6.00;;
20458;SDS011;10388;52.314;7.938;2023-07-31T16:50:01;8.37;;;7.57;;
20458;SDS011;10388;52.314;7.938;2023-07-31T16:52:32;7.50;;;6.90;;
20458;SDS011;10388;52.314;7.938;2023-07-31T16:55:02;7.47;;;6.77;;
20458;SDS011;10388;52.314;7.938;2023-07-31T16:57:33;7.13;;;6.33;;
20458;SDS011;10388;52.314;7.938;2023-07-31T17:00:04;7.07;;;6.03;;
20458;SDS011;10388;52.314;7.938;2023-07-31T17:02:35;6.17;;;5.57;;
20458;SDS011;10388;52.314;7.938;2023-07-31T17:05:05;5.83;;;4.90;;
20458;SDS011;10388;52.314;7.938;2023-07-31T17:07:37;5.20;;;4.80;;
20458;SDS011;10388;52.314;7.938;2023-07-31T17:10:08;5.40;;;5.00;;
20458;SDS011;10388;52.314;7.938;2023-07-31T17:12:38;5.90;;;4.07;;
20458;SDS011;10388;52.314;7.938;2023-07-31T17:15:09;4.93;;;4.53;;
20458;SDS011;10388;52.314;7.938;2023-07-31T17:17:40;5.03;;;4.63;;
20458;SDS011;10388;52.314;7.938;2023-07-31T17:20:11;4.87;;;4.47;;
20458;SDS011;10388;52.314;7.938;2023-07-31T17:22:41;7.20;;;4.90;;
20458;SDS011;10388;52.314;7.938;2023-07-31T17:25:16;4.97;;;4.57;;
20458;SDS011;10388;52.314;7.938;2023-07-31T17:27:48;4.63;;;4.23;;
20458;SDS011;10388;52.314;7.938;2023-07-31T17:30:19;5.13;;;4.63;;
20458;SDS011;10388;52.314;7.938;2023-07-31T17:32:49;5.57;;;4.27;;
20458;SDS011;10388;52.314;7.938;2023-07-31T17:35:20;5.23;;;4.77;;
20458;SDS011;10388;52.314;7.938;2023-07-31T17:37:50;4.70;;;4.30;;
20458;SDS011;10388;52.314;7.938;2023-07-31T17:40:21;5.20;;;4.70;;
20458;SDS011;10388;52.314;7.938;2023-07-31T17:42:51;5.30;;;4.80;;
20458;SDS011;10388;52.314;7.938;2023-07-31T17:45:22;7.33;;;4.90;;
20458;SDS011;10388;52.314;7.938;2023-07-31T17:47:53;5.23;;;4.83;;
20458;SDS011;10388;52.314;7.938;2023-07-31T17:50:23;5.53;;;5.03;;
20458;SDS011;10388;52.314;7.938;2023-07-31T17:52:54;6.07;;;5.17;;
20458;SDS011;10388;52.314;7.938;2023-07-31T17:55:25;5.67;;;4.77;;
20458;SDS011;10388;52.314;7.938;2023-07-31T17:57:55;5.37;;;4.93;;
20458;SDS011;10388;52.314;7.938;2023-07-31T18:00:26;5.50;;;4.87;;
20458;SDS011;10388;52.314;7.938;2023-07-31T18:02:57;6.37;;;4.53;;
20458;SDS011;10388;52.314;7.938;2023-07-31T18:05:28;5.10;;;4.53;;
20458;SDS011;10388;52.314;7.938;2023-07-31T18:07:58;6.77;;;5.30;;
20458;SDS011;10388;52.314;7.938;2023-07-31T18:10:29;5.10;;;4.60;;
20458;SDS011;10388;52.314;7.938;2023-07-31T18:13:00;5.10;;;4.70;;
20458;SDS011;10388;52.314;7.938;2023-07-31T18:15:30;6.00;;;4.03;;
20458;SDS011;10388;52.314;7.938;2023-07-31T18:18:01;4.77;;;4.27;;
20458;SDS011;10388;52.314;7.938;2023-07-31T18:20:31;6.90;;;4.30;;
20458;SDS011;10388;52.314;7.938;2023-07-31T18:23:05;4.60;;;3.77;;
20458;SDS011;10388;52.314;7.938;2023-07-31T18:25:35;4.63;;;3.73;;
20458;SDS011;10388;52.314;7.938;2023-07-31T18:28:06;8.07;;;4.40;;
20458;SDS011;10388;52.314;7.938;2023-07-31T18:30:36;4.83;;;3.87;;
20458;SDS011;10388;52.314;7.938;2023-07-31T18:33:08;5.37;;;4.10;;
20458;SDS011;10388;52.314;7.938;2023-07-31T18:35:38;4.40;;;3.80;;
20458;SDS011;10388;52.314;7.938;2023-07-31T18:38:09;5.77;;;4.17;;
20458;SDS011;10388;52.314;7.938;2023-07-31T18:40:39;3.93;;;3.57;;
20458;SDS011;10388;52.314;7.938;2023-07-31T18:43:10;6.03;;;4.13;;
20458;SDS011;10388;52.314;7.938;2023-07-31T18:45:40;6.43;;;4.07;;
20458;SDS011;10388;52.314;7.938;2023-07-31T18:48:11;4.93;;;4.27;;
20458;SDS011;10388;52.314;7.938;2023-07-31T18:50:42;9.00;;;4.43;;
20458;SDS011;10388;52.314;7.938;2023-07-31T18:53:13;4.27;;;3.77;;
20458;SDS011;10388;52.314;7.938;2023-07-31T18:55:43;4.23;;;3.83;;
20458;SDS011;10388;52.314;7.938;2023-07-31T18:58:14;5.57;;;3.80;;
20458;SDS011;10388;52.314;7.938;2023-07-31T19:00:45;3.87;;;3.57;;
20458;SDS011;10388;52.314;7.938;2023-07-31T19:03:15;4.30;;;3.80;;
20458;SDS011;10388;52.314;7.938;2023-07-31T19:05:46;6.13;;;4.07;;
20458;SDS011;10388;52.314;7.938;2023-07-31T19:08:16;4.13;;;3.73;;
20458;SDS011;10388;52.314;7.938;2023-07-31T19:10:47;3.93;;;3.50;;
20458;SDS011;10388;52.314;7.938;2023-07-31T19:13:17;4.50;;;3.60;;
20458;SDS011;10388;52.314;7.938;2023-07-31T19:15:48;5.00;;;4.00;;
20458;SDS011;10388;52.314;7.938;2023-07-31T19:18:19;4.37;;;3.33;;
20458;SDS011;10388;52.314;7.938;2023-07-31T19:20:49;4.10;;;3.50;;
20458;SDS011;10388;52.314;7.938;2023-07-31T19:23:20;5.73;;;3.83;;
20458;SDS011;10388;52.314;7.938;2023-07-31T19:25:51;4.07;;;3.47;;
20458;SDS011;10388;52.314;7.938;2023-07-31T19:28:22;5.00;;;3.53;;
20458;SDS011;10388;52.314;7.938;2023-07-31T19:30:52;4.07;;;3.20;;
20458;SDS011;10388;52.314;7.938;2023-07-31T19:33:23;4.43;;;3.50;;
20458;SDS011;10388;52.314;7.938;2023-07-31T19:35:55;4.50;;;3.80;;
20458;SDS011;10388;52.314;7.938;2023-07-31T19:38:29;4.03;;;3.63;;
20458;SDS011;10388;52.314;7.938;2023-07-31T19:41:00;4.50;;;3.50;;
20458;SDS011;10388;52.314;7.938;2023-07-31T19:43:30;3.70;;;3.33;;
20458;SDS011;10388;52.314;7.938;2023-07-31T19:46:01;4.80;;;3.40;;
20458;SDS011;10388;52.314;7.938;2023-07-31T19:48:31;3.43;;;3.10;;
20458;SDS011;10388;52.314;7.938;2023-07-31T19:51:02;3.87;;;2.73;;
20458;SDS011;10388;52.314;7.938;2023-07-31T19:53:34;5.70;;;2.97;;
20458;SDS011;10388;52.314;7.938;2023-07-31T19:56:05;3.77;;;2.97;;
20458;SDS011;10388;52.314;7.938;2023-07-31T19:58:36;3.57;;;2.70;;
20458;SDS011;10388;52.314;7.938;2023-07-31T20:01:07;3.40;;;2.73;;
20458;SDS011;10388;52.314;7.938;2023-07-31T20:03:37;3.53;;;2.90;;
20458;SDS011;10388;52.314;7.938;2023-07-31T20:06:08;4.03;;;2.77;;
20458;SDS011;10388;52.314;7.938;2023-07-31T20:08:38;4.07;;;2.40;;
20458;SDS011;10388;52.314;7.938;2023-07-31T20:11:09;2.70;;;2.40;;
20458;SDS011;10388;52.314;7.938;2023-07-31T20:13:39;3.27;;;2.97;;
20458;SDS011;10388;52.314;7.938;2023-07-31T20:16:10;2.30;;;2.10;;
20458;SDS011;10388;52.314;7.938;2023-07-31T20:18:40;2.67;;;2.20;;
20458;SDS011;10388;52.314;7.938;2023-07-31T20:21:13;3.30;;;2.70;;
20458;SDS011;10388;52.314;7.938;2023-07-31T20:23:44;4.70;;;2.17;;
20458;SDS011;10388;52.314;7.938;2023-07-31T20:26:15;2.57;;;2.33;;
20458;SDS011;10388;52.314;7.938;2023-07-31T20:28:45;2.33;;;2.13;;
20458;SDS011;10388;52.314;7.938;2023-07-31T20:31:16;2.50;;;1.93;;
20458;SDS011;10388;52.314;7.938;2023-07-31T20:33:46;2.43;;;2.13;;
20458;SDS011;10388;52.314;7.938;2023-07-31T20:36:17;3.53;;;2.20;;
20458;SDS011;10388;52.314;7.938;2023-07-31T20:38:48;3.60;;;2.40;;
20458;SDS011;10388;52.314;7.938;2023-07-31T20:41:18;2.33;;;2.13;;
20458;SDS011;10388;52.314;7.938;2023-07-31T20:43:49;3.80;;;2.20;;
20458;SDS011;10388;52.314;7.938;2023-07-31T20:46:20;3.23;;;1.90;;
20458;SDS011;10388;52.314;7.938;2023-07-31T20:48:50;2.13;;;1.87;;
20458;SDS011;10388;52.314;7.938;2023-07-31T20:51:21;3.80;;;2.07;;
20458;SDS011;10388;52.314;7.938;2023-07-31T20:53:52;1.87;;;1.67;;
20458;SDS011;10388;52.314;7.938;2023-07-31T20:56:22;3.20;;;2.17;;
20458;SDS011;10388;52.314;7.938;2023-07-31T20:58:53;1.90;;;1.70;;
20458;SDS011;10388;52.314;7.938;2023-07-31T21:01:23;2.40;;;1.87;;
20458;SDS011;10388;52.314;7.938;2023-07-31T21:03:54;3.23;;;1.60;;
20458;SDS011;10388;52.314;7.938;2023-07-31T21:06:24;2.93;;;1.60;;
20458;SDS011;10388;52.314;7.938;2023-07-31T21:08:55;1.93;;;1.73;;
20458;SDS011;10388;52.314;7.938;2023-07-31T21:11:27;2.47;;;1.90;;
20458;SDS011;10388;52.314;7.938;2023-07-31T21:14:01;3.67;;;1.90;;
20458;SDS011;10388;52.314;7.938;2023-07-31T21:16:31;1.90;;;1.80;;
20458;SDS011;10388;52.314;7.938;2023-07-31T21:19:02;3.23;;;1.87;;
20458;SDS011;10388;52.314;7.938;2023-07-31T21:21:32;2.83;;;2.10;;
20458;SDS011;10388;52.314;7.938;2023-07-31T21:24:03;2.00;;;1.90;;
20458;SDS011;10388;52.314;7.938;2023-07-31T21:26:33;2.47;;;2.07;;
20458;SDS011;10388;52.314;7.938;2023-07-31T21:29:04;2.40;;;2.20;;
20458;SDS011;10388;52.314;7.938;2023-07-31T21:31:34;5.33;;;2.40;;
20458;SDS011;10388;52.314;7.938;2023-07-31T21:34:05;2.50;;;2.13;;
20458;SDS011;10388;52.314;7.938;2023-07-31T21:36:36;1.93;;;1.83;;
20458;SDS011;10388;52.314;7.938;2023-07-31T21:39:06;3.30;;;1.70;;
20458;SDS011;10388;52.314;7.938;2023-07-31T21:41:37;2.13;;;1.93;;
20458;SDS011;10388;52.314;7.938;2023-07-31T21:44:07;2.50;;;2.00;;
20458;SDS011;10388;52.314;7.938;2023-07-31T21:46:38;2.30;;;2.10;;
20458;SDS011;10388;52.314;7.938;2023-07-31T21:49:08;5.30;;;2.10;;
20458;SDS011;10388;52.314;7.938;2023-07-31T21:51:39;4.37;;;2.17;;
20458;SDS011;10388;52.314;7.938;2023-07-31T21:54:09;2.67;;;2.03;;
20458;SDS011;10388;52.314;7.938;2023-07-31T21:56:40;2.67;;;2.00;;
20458;SDS011;10388;52.314;7.938;2023-07-31T21:59:11;1.83;;;1.73;;
20458;SDS011;10388;52.314;7.938;2023-07-31T22:01:42;3.13;;;1.90;;
20458;SDS011;10388;52.314;7.938;2023-07-31T22:04:12;1.70;;;1.60;;
20458;SDS011;10388;52.314;7.938;2023-07-31T22:06:43;1.70;;;1.60;;
20458;SDS011;10388;52.314;7.938;2023-07-31T22:09:13;2.47;;;1.77;;
20458;SDS011;10388;52.314;7.938;2023-07-31T22:11:44;1.80;;;1.70;;
20458;SDS011;10388;52.314;7.938;2023-07-31T22:14:14;1.80;;;1.70;;
20458;SDS011;10388;52.314;7.938;2023-07-31T22:16:45;1.50;;;1.40;;
20458;SDS011;10388;52.314;7.938;2023-07-31T22:19:16;3.30;;;1.70;;
20458;SDS011;10388;52.314;7.938;2023-07-31T22:21:46;4.03;;;1.40;;
20458;SDS011;10388;52.314;7.938;2023-07-31T22:24:17;1.67;;;1.13;;